sensor_id;sensor_type;location;lat;lon;timestamp;P1;durP1;ratioP1;P2;durP2;ratioP2
40489;SDS011;26196;52.302;10.572;2024-01-15T00:00:10;6.32;;;4.65;;
40489;SDS011;26196;52.302;10.572;2024-01-15T00:04:12;7.00;;;4.65;;
40489;SDS011;26196;52.302;10.572;2024-01-15T00:08:14;5.93;;;4.22;;
40489;SDS011;26196;52.302;10.572;2024-01-15T00:12:18;6.68;;;4.85;;
40489;SDS011;26196;52.302;10.572;2024-01-15T00:16:19;5.43;;;3.80;;
40489;SDS011;26196;52.302;10.572;2024-01-15T00:20:21;6.50;;;4.80;;
40489;SDS011;26196;52.302;10.572;2024-01-15T00:24:34;7.28;;;4.82;;
40489;SDS011;26196;52.302;10.572;2024-01-15T00:28:36;8.23;;;5.10;;
40489;SDS011;26196;52.302;10.572;2024-01-15T00:32:39;5.57;;;3.90;;
40489;SDS011;26196;52.302;10.572;2024-01-15T00:36:40;8.93;;;4.30;;
40489;SDS011;26196;52.302;10.572;2024-01-15T00:40:42;5.75;;;4.05;;
40489;SDS011;26196;52.302;10.572;2024-01-15T00:44:44;5.70;;;3.90;;
40489;SDS011;26196;52.302;10.572;2024-01-15T00:48:45;6.20;;;3.80;;
40489;SDS011;26196;52.302;10.572;2024-01-15T00:52:48;5.55;;;3.75;;
40489;SDS011;26196;52.302;10.572;2024-01-15T01:05:18;6.10;;;3.58;;
40489;SDS011;26196;52.302;10.572;2024-01-15T01:09:20;4.72;;;3.35;;
40489;SDS011;26196;52.302;10.572;2024-01-15T01:13:21;4.20;;;2.85;;
40489;SDS011;26196;52.302;10.572;2024-01-15T01:21:59;4.65;;;2.92;;
40489;SDS011;26196;52.302;10.572;2024-01-15T01:26:01;3.45;;;2.80;;
40489;SDS011;26196;52.302;10.572;2024-01-15T01:30:18;4.05;;;2.30;;
40489;SDS011;26196;52.302;10.572;2024-01-15T01:34:19;2.53;;;2.00;;
40489;SDS011;26196;52.302;10.572;2024-01-15T01:38:21;3.95;;;2.13;;
40489;SDS011;26196;52.302;10.572;2024-01-15T01:42:24;3.70;;;2.85;;
40489;SDS011;26196;52.302;10.572;2024-01-15T01:46:27;3.78;;;2.08;;
40489;SDS011;26196;52.302;10.572;2024-01-15T01:55:04;3.03;;;2.00;;
40489;SDS011;26196;52.302;10.572;2024-01-15T01:59:07;3.70;;;2.15;;
40489;SDS011;26196;52.302;10.572;2024-01-15T02:03:14;2.83;;;1.80;;
40489;SDS011;26196;52.302;10.572;2024-01-15T02:07:16;4.03;;;1.58;;
40489;SDS011;26196;52.302;10.572;2024-01-15T02:11:19;3.38;;;1.98;;
40489;SDS011;26196;52.302;10.572;2024-01-15T02:15:20;3.15;;;1.95;;
40489;SDS011;26196;52.302;10.572;2024-01-15T02:19:22;2.35;;;1.80;;
40489;SDS011;26196;52.302;10.572;2024-01-15T02:23:23;4.72;;;1.60;;
40489;SDS011;26196;52.302;10.572;2024-01-15T02:27:25;2.08;;;1.55;;
40489;SDS011;26196;52.302;10.572;2024-01-15T02:31:27;3.80;;;1.40;;
40489;SDS011;26196;52.302;10.572;2024-01-15T02:35:29;4.07;;;1.70;;
40489;SDS011;26196;52.302;10.572;2024-01-15T02:39:30;3.83;;;1.13;;
40489;SDS011;26196;52.302;10.572;2024-01-15T02:43:32;2.35;;;1.52;;
40489;SDS011;26196;52.302;10.572;2024-01-15T02:47:33;3.53;;;1.50;;
40489;SDS011;26196;52.302;10.572;2024-01-15T02:51:35;3.00;;;1.45;;
40489;SDS011;26196;52.302;10.572;2024-01-15T02:55:37;3.55;;;1.50;;
40489;SDS011;26196;52.302;10.572;2024-01-15T02:59:38;3.42;;;1.20;;
40489;SDS011;26196;52.302;10.572;2024-01-15T03:03:40;3.05;;;1.25;;
40489;SDS011;26196;52.302;10.572;2024-01-15T03:07:42;3.45;;;1.30;;
40489;SDS011;26196;52.302;10.572;2024-01-15T03:11:44;3.47;;;1.10;;
40489;SDS011;26196;52.302;10.572;2024-01-15T03:19:56;3.17;;;1.52;;
40489;SDS011;26196;52.302;10.572;2024-01-15T03:24:05;3.60;;;1.23;;
40489;SDS011;26196;52.302;10.572;2024-01-15T03:28:07;3.65;;;1.48;;
40489;SDS011;26196;52.302;10.572;2024-01-15T03:32:08;4.40;;;1.10;;
40489;SDS011;26196;52.302;10.572;2024-01-15T03:36:10;3.17;;;0.90;;
40489;SDS011;26196;52.302;10.572;2024-01-15T03:40:12;3.10;;;1.45;;
40489;SDS011;26196;52.302;10.572;2024-01-15T03:44:14;4.43;;;1.10;;
40489;SDS011;26196;52.302;10.572;2024-01-15T03:48:15;3.65;;;1.20;;
40489;SDS011;26196;52.302;10.572;2024-01-15T03:52:17;3.08;;;1.20;;
40489;SDS011;26196;52.302;10.572;2024-01-15T03:56:19;5.55;;;0.93;;
40489;SDS011;26196;52.302;10.572;2024-01-15T04:00:20;1.60;;;0.80;;
40489;SDS011;26196;52.302;10.572;2024-01-15T04:04:22;1.48;;;0.73;;
40489;SDS011;26196;52.302;10.572;2024-01-15T04:08:25;2.30;;;0.80;;
40489;SDS011;26196;52.302;10.572;2024-01-15T04:12:27;2.20;;;0.90;;
40489;SDS011;26196;52.302;10.572;2024-01-15T04:20:41;2.97;;;0.95;;
40489;SDS011;26196;52.302;10.572;2024-01-15T04:28:49;2.58;;;0.75;;
40489;SDS011;26196;52.302;10.572;2024-01-15T04:32:51;3.97;;;1.15;;
40489;SDS011;26196;52.302;10.572;2024-01-15T04:41:04;3.45;;;0.60;;
40489;SDS011;26196;52.302;10.572;2024-01-15T04:45:24;3.63;;;0.90;;
40489;SDS011;26196;52.302;10.572;2024-01-15T04:58:38;3.28;;;1.77;;
40489;SDS011;26196;52.302;10.572;2024-01-15T05:06:59;2.75;;;0.93;;
40489;SDS011;26196;52.302;10.572;2024-01-15T05:11:13;3.30;;;1.00;;
40489;SDS011;26196;52.302;10.572;2024-01-15T05:19:28;2.38;;;0.80;;
40489;SDS011;26196;52.302;10.572;2024-01-15T05:27:51;3.38;;;0.90;;
40489;SDS011;26196;52.302;10.572;2024-01-15T05:36:14;3.40;;;0.70;;
40489;SDS011;26196;52.302;10.572;2024-01-15T05:44:21;1.60;;;0.60;;
40489;SDS011;26196;52.302;10.572;2024-01-15T05:48:23;3.13;;;0.77;;
40489;SDS011;26196;52.302;10.572;2024-01-15T05:52:25;2.97;;;0.80;;
40489;SDS011;26196;52.302;10.572;2024-01-15T05:56:29;5.32;;;0.82;;
40489;SDS011;26196;52.302;10.572;2024-01-15T06:00:30;2.75;;;0.95;;
40489;SDS011;26196;52.302;10.572;2024-01-15T06:04:35;7.38;;;1.55;;
40489;SDS011;26196;52.302;10.572;2024-01-15T06:08:37;5.28;;;1.02;;
40489;SDS011;26196;52.302;10.572;2024-01-15T06:12:39;2.92;;;0.93;;
40489;SDS011;26196;52.302;10.572;2024-01-15T06:16:40;3.95;;;0.88;;
40489;SDS011;26196;52.302;10.572;2024-01-15T06:20:42;4.97;;;1.15;;
40489;SDS011;26196;52.302;10.572;2024-01-15T06:24:44;3.83;;;0.98;;
40489;SDS011;26196;52.302;10.572;2024-01-15T06:28:45;8.38;;;1.50;;
40489;SDS011;26196;52.302;10.572;2024-01-15T06:32:49;4.40;;;1.00;;
40489;SDS011;26196;52.302;10.572;2024-01-15T06:36:51;5.35;;;1.38;;
40489;SDS011;26196;52.302;10.572;2024-01-15T06:44:59;15.25;;;1.60;;
40489;SDS011;26196;52.302;10.572;2024-01-15T06:49:01;15.68;;;2.05;;
40489;SDS011;26196;52.302;10.572;2024-01-15T06:53:03;12.02;;;1.75;;
40489;SDS011;26196;52.302;10.572;2024-01-15T06:57:05;9.75;;;1.70;;
40489;SDS011;26196;52.302;10.572;2024-01-15T07:01:09;5.18;;;1.40;;
40489;SDS011;26196;52.302;10.572;2024-01-15T07:13:41;4.40;;;1.10;;
40489;SDS011;26196;52.302;10.572;2024-01-15T07:17:49;11.38;;;1.85;;
40489;SDS011;26196;52.302;10.572;2024-01-15T07:22:00;7.28;;;2.13;;
40489;SDS011;26196;52.302;10.572;2024-01-15T07:26:17;5.35;;;1.23;;
40489;SDS011;26196;52.302;10.572;2024-01-15T07:34:34;4.25;;;1.10;;
40489;SDS011;26196;52.302;10.572;2024-01-15T07:38:38;4.35;;;1.35;;
40489;SDS011;26196;52.302;10.572;2024-01-15T07:46:47;2.70;;;0.80;;
40489;SDS011;26196;52.302;10.572;2024-01-15T07:51:04;5.82;;;1.13;;
40489;SDS011;26196;52.302;10.572;2024-01-15T07:55:05;3.05;;;0.88;;
40489;SDS011;26196;52.302;10.572;2024-01-15T07:59:07;2.20;;;1.27;;
40489;SDS011;26196;52.302;10.572;2024-01-15T08:03:09;2.70;;;0.88;;
40489;SDS011;26196;52.302;10.572;2024-01-15T08:07:14;3.95;;;1.05;;
40489;SDS011;26196;52.302;10.572;2024-01-15T08:11:22;2.67;;;0.85;;
40489;SDS011;26196;52.302;10.572;2024-01-15T08:15:24;5.53;;;1.15;;
40489;SDS011;26196;52.302;10.572;2024-01-15T08:19:31;2.88;;;0.93;;
40489;SDS011;26196;52.302;10.572;2024-01-15T08:23:34;2.85;;;2.22;;
40489;SDS011;26196;52.302;10.572;2024-01-15T08:27:36;2.80;;;1.10;;
40489;SDS011;26196;52.302;10.572;2024-01-15T08:44:34;2.33;;;0.80;;
40489;SDS011;26196;52.302;10.572;2024-01-15T08:48:36;3.72;;;0.80;;
40489;SDS011;26196;52.302;10.572;2024-01-15T09:01:07;2.15;;;0.70;;
40489;SDS011;26196;52.302;10.572;2024-01-15T09:05:17;7.05;;;0.90;;
40489;SDS011;26196;52.302;10.572;2024-01-15T09:09:18;2.83;;;0.75;;
40489;SDS011;26196;52.302;10.572;2024-01-15T09:13:20;2.92;;;0.80;;
40489;SDS011;26196;52.302;10.572;2024-01-15T09:17:21;4.10;;;1.15;;
40489;SDS011;26196;52.302;10.572;2024-01-15T09:21:34;2.13;;;0.80;;
40489;SDS011;26196;52.302;10.572;2024-01-15T09:29:47;3.75;;;0.63;;
40489;SDS011;26196;52.302;10.572;2024-01-15T09:34:02;1.88;;;0.50;;
40489;SDS011;26196;52.302;10.572;2024-01-15T09:42:09;3.13;;;0.60;;
40489;SDS011;26196;52.302;10.572;2024-01-15T09:46:12;3.03;;;1.60;;
40489;SDS011;26196;52.302;10.572;2024-01-15T09:50:15;1.40;;;0.40;;
40489;SDS011;26196;52.302;10.572;2024-01-15T09:54:17;1.15;;;1.05;;
40489;SDS011;26196;52.302;10.572;2024-01-15T09:58:20;1.92;;;0.57;;
40489;SDS011;26196;52.302;10.572;2024-01-15T10:02:22;2.90;;;0.50;;
40489;SDS011;26196;52.302;10.572;2024-01-15T10:06:23;1.88;;;0.50;;
40489;SDS011;26196;52.302;10.572;2024-01-15T10:10:29;1.63;;;0.40;;
40489;SDS011;26196;52.302;10.572;2024-01-15T10:14:31;2.90;;;0.70;;
40489;SDS011;26196;52.302;10.572;2024-01-15T10:18:36;2.85;;;0.65;;
40489;SDS011;26196;52.302;10.572;2024-01-15T10:26:49;4.25;;;0.85;;
40489;SDS011;26196;52.302;10.572;2024-01-15T10:31:00;2.15;;;0.45;;
40489;SDS011;26196;52.302;10.572;2024-01-15T10:35:04;2.53;;;0.45;;
40489;SDS011;26196;52.302;10.572;2024-01-15T10:39:08;2.90;;;0.75;;
40489;SDS011;26196;52.302;10.572;2024-01-15T10:43:10;2.92;;;0.75;;
40489;SDS011;26196;52.302;10.572;2024-01-15T10:47:18;3.20;;;0.65;;
40489;SDS011;26196;52.302;10.572;2024-01-15T10:55:37;1.85;;;0.70;;
40489;SDS011;26196;52.302;10.572;2024-01-15T10:59:40;3.55;;;0.80;;
40489;SDS011;26196;52.302;10.572;2024-01-15T11:03:47;3.13;;;0.70;;
40489;SDS011;26196;52.302;10.572;2024-01-15T11:07:58;3.75;;;0.70;;
40489;SDS011;26196;52.302;10.572;2024-01-15T11:12:09;2.20;;;0.90;;
40489;SDS011;26196;52.302;10.572;2024-01-15T11:16:24;2.50;;;0.90;;
40489;SDS011;26196;52.302;10.572;2024-01-15T11:25:35;1.60;;;0.50;;
40489;SDS011;26196;52.302;10.572;2024-01-15T11:29:40;2.40;;;1.23;;
40489;SDS011;26196;52.302;10.572;2024-01-15T11:33:49;1.52;;;0.47;;
40489;SDS011;26196;52.302;10.572;2024-01-15T11:41:55;1.10;;;0.45;;
40489;SDS011;26196;52.302;10.572;2024-01-15T11:45:57;1.90;;;0.70;;
40489;SDS011;26196;52.302;10.572;2024-01-15T11:50:04;1.02;;;0.50;;
40489;SDS011;26196;52.302;10.572;2024-01-15T11:54:07;1.60;;;0.40;;
40489;SDS011;26196;52.302;10.572;2024-01-15T11:58:19;1.23;;;0.35;;
40489;SDS011;26196;52.302;10.572;2024-01-15T12:02:22;3.90;;;0.70;;
40489;SDS011;26196;52.302;10.572;2024-01-15T12:06:27;3.65;;;0.52;;
40489;SDS011;26196;52.302;10.572;2024-01-15T12:10:29;2.15;;;0.68;;
40489;SDS011;26196;52.302;10.572;2024-01-15T12:18:42;4.60;;;0.68;;
40489;SDS011;26196;52.302;10.572;2024-01-15T12:27:11;3.88;;;0.68;;
40489;SDS011;26196;52.302;10.572;2024-01-15T12:40:22;3.75;;;0.60;;
40489;SDS011;26196;52.302;10.572;2024-01-15T12:44:25;2.78;;;0.80;;
40489;SDS011;26196;52.302;10.572;2024-01-15T12:48:27;4.40;;;0.90;;
40489;SDS011;26196;52.302;10.572;2024-01-15T12:52:30;4.70;;;0.93;;
40489;SDS011;26196;52.302;10.572;2024-01-15T12:56:32;2.38;;;0.70;;
40489;SDS011;26196;52.302;10.572;2024-01-15T13:00:43;2.50;;;0.63;;
40489;SDS011;26196;52.302;10.572;2024-01-15T13:04:45;3.42;;;0.50;;
40489;SDS011;26196;52.302;10.572;2024-01-15T13:08:47;1.65;;;0.70;;
40489;SDS011;26196;52.302;10.572;2024-01-15T13:12:49;2.20;;;0.40;;
40489;SDS011;26196;52.302;10.572;2024-01-15T13:16:52;1.88;;;0.40;;
40489;SDS011;26196;52.302;10.572;2024-01-15T13:25:10;5.75;;;0.63;;
40489;SDS011;26196;52.302;10.572;2024-01-15T13:29:12;4.88;;;1.67;;
40489;SDS011;26196;52.302;10.572;2024-01-15T13:33:21;3.08;;;1.08;;
40489;SDS011;26196;52.302;10.572;2024-01-15T13:37:23;3.90;;;0.70;;
40489;SDS011;26196;52.302;10.572;2024-01-15T13:41:29;2.22;;;0.60;;
40489;SDS011;26196;52.302;10.572;2024-01-15T13:49:49;3.03;;;0.88;;
40489;SDS011;26196;52.302;10.572;2024-01-15T13:53:57;1.45;;;0.40;;
40489;SDS011;26196;52.302;10.572;2024-01-15T14:02:12;2.95;;;0.60;;
40489;SDS011;26196;52.302;10.572;2024-01-15T14:06:19;3.90;;;2.05;;
40489;SDS011;26196;52.302;10.572;2024-01-15T14:10:21;3.45;;;0.60;;
40489;SDS011;26196;52.302;10.572;2024-01-15T14:14:22;4.65;;;1.20;;
40489;SDS011;26196;52.302;10.572;2024-01-15T14:18:27;1.55;;;0.32;;
40489;SDS011;26196;52.302;10.572;2024-01-15T14:22:35;4.63;;;0.57;;
40489;SDS011;26196;52.302;10.572;2024-01-15T14:26:36;1.38;;;0.52;;
40489;SDS011;26196;52.302;10.572;2024-01-15T14:34:55;3.58;;;0.77;;
40489;SDS011;26196;52.302;10.572;2024-01-15T14:38:58;2.70;;;0.80;;
40489;SDS011;26196;52.302;10.572;2024-01-15T14:47:18;4.20;;;1.02;;
40489;SDS011;26196;52.302;10.572;2024-01-15T14:51:30;2.23;;;0.83;;
40489;SDS011;26196;52.302;10.572;2024-01-15T14:55:34;3.53;;;0.77;;
40489;SDS011;26196;52.302;10.572;2024-01-15T14:59:36;2.30;;;0.60;;
40489;SDS011;26196;52.302;10.572;2024-01-15T15:03:38;4.88;;;1.35;;
40489;SDS011;26196;52.302;10.572;2024-01-15T15:16:11;1.25;;;0.73;;
40489;SDS011;26196;52.302;10.572;2024-01-15T15:20:15;2.30;;;0.88;;
40489;SDS011;26196;52.302;10.572;2024-01-15T15:24:18;6.32;;;0.88;;
40489;SDS011;26196;52.302;10.572;2024-01-15T15:28:19;5.68;;;0.85;;
40489;SDS011;26196;52.302;10.572;2024-01-15T15:32:21;2.45;;;0.95;;
40489;SDS011;26196;52.302;10.572;2024-01-15T15:36:22;2.25;;;0.60;;
40489;SDS011;26196;52.302;10.572;2024-01-15T15:44:31;2.33;;;0.60;;
40489;SDS011;26196;52.302;10.572;2024-01-15T16:18:53;3.10;;;1.15;;
40489;SDS011;26196;52.302;10.572;2024-01-15T16:28:07;1.23;;;1.00;;
40489;SDS011;26196;52.302;10.572;2024-01-15T16:36:26;1.52;;;1.13;;
40489;SDS011;26196;52.302;10.572;2024-01-15T16:40:30;4.22;;;2.53;;
40489;SDS011;26196;52.302;10.572;2024-01-15T16:48:41;7.00;;;3.05;;
40489;SDS011;26196;52.302;10.572;2024-01-15T16:56:49;3.93;;;1.93;;
40489;SDS011;26196;52.302;10.572;2024-01-15T17:09:09;2.08;;;1.50;;
40489;SDS011;26196;52.302;10.572;2024-01-15T17:13:11;2.58;;;1.63;;
40489;SDS011;26196;52.302;10.572;2024-01-15T17:21:30;2.17;;;1.13;;
40489;SDS011;26196;52.302;10.572;2024-01-15T17:25:32;3.10;;;1.58;;
40489;SDS011;26196;52.302;10.572;2024-01-15T17:33:58;1.00;;;0.77;;
40489;SDS011;26196;52.302;10.572;2024-01-15T17:38:01;1.50;;;1.02;;
40489;SDS011;26196;52.302;10.572;2024-01-15T17:42:05;1.15;;;0.80;;
40489;SDS011;26196;52.302;10.572;2024-01-15T17:46:11;1.65;;;1.52;;
40489;SDS011;26196;52.302;10.572;2024-01-15T17:50:22;2.25;;;0.88;;
40489;SDS011;26196;52.302;10.572;2024-01-15T17:54:28;1.02;;;0.70;;
40489;SDS011;26196;52.302;10.572;2024-01-15T17:58:34;1.13;;;0.90;;
40489;SDS011;26196;52.302;10.572;2024-01-15T18:07:01;1.10;;;1.00;;
40489;SDS011;26196;52.302;10.572;2024-01-15T18:15:33;2.80;;;1.80;;
40489;SDS011;26196;52.302;10.572;2024-01-15T18:19:34;1.95;;;1.10;;
40489;SDS011;26196;52.302;10.572;2024-01-15T18:23:37;2.97;;;1.00;;
40489;SDS011;26196;52.302;10.572;2024-01-15T18:27:40;2.45;;;0.70;;
40489;SDS011;26196;52.302;10.572;2024-01-15T18:31:41;1.52;;;1.08;;
40489;SDS011;26196;52.302;10.572;2024-01-15T18:44:02;5.93;;;3.47;;
40489;SDS011;26196;52.302;10.572;2024-01-15T18:48:03;6.88;;;3.63;;
40489;SDS011;26196;52.302;10.572;2024-01-15T18:52:15;3.70;;;2.30;;
40489;SDS011;26196;52.302;10.572;2024-01-15T18:56:24;3.40;;;2.17;;
40489;SDS011;26196;52.302;10.572;2024-01-15T19:00:35;2.42;;;1.65;;
40489;SDS011;26196;52.302;10.572;2024-01-15T19:04:38;2.28;;;1.58;;
40489;SDS011;26196;52.302;10.572;2024-01-15T19:08:53;1.27;;;1.00;;
40489;SDS011;26196;52.302;10.572;2024-01-15T19:12:57;2.30;;;1.30;;
40489;SDS011;26196;52.302;10.572;2024-01-15T19:17:00;3.97;;;1.30;;
40489;SDS011;26196;52.302;10.572;2024-01-15T19:21:11;1.60;;;1.20;;
40489;SDS011;26196;52.302;10.572;2024-01-15T19:29:38;2.22;;;1.30;;
40489;SDS011;26196;52.302;10.572;2024-01-15T19:33:40;3.83;;;1.20;;
40489;SDS011;26196;52.302;10.572;2024-01-15T19:37:45;1.20;;;0.82;;
40489;SDS011;26196;52.302;10.572;2024-01-15T19:46:02;3.45;;;0.95;;
40489;SDS011;26196;52.302;10.572;2024-01-15T19:50:04;2.35;;;0.70;;
40489;SDS011;26196;52.302;10.572;2024-01-15T19:54:07;3.38;;;0.90;;
40489;SDS011;26196;52.302;10.572;2024-01-15T20:02:30;4.75;;;2.20;;
40489;SDS011;26196;52.302;10.572;2024-01-15T20:06:35;11.90;;;3.72;;
40489;SDS011;26196;52.302;10.572;2024-01-15T20:15:13;6.38;;;1.70;;
40489;SDS011;26196;52.302;10.572;2024-01-15T20:19:15;3.40;;;1.30;;
40489;SDS011;26196;52.302;10.572;2024-01-15T20:23:23;4.15;;;1.08;;
40489;SDS011;26196;52.302;10.572;2024-01-15T20:40:31;2.13;;;0.82;;
40489;SDS011;26196;52.302;10.572;2024-01-15T20:44:45;1.75;;;0.80;;
40489;SDS011;26196;52.302;10.572;2024-01-15T20:48:46;3.60;;;1.23;;
40489;SDS011;26196;52.302;10.572;2024-01-15T20:52:49;2.75;;;0.90;;
40489;SDS011;26196;52.302;10.572;2024-01-15T20:56:50;3.65;;;0.90;;
40489;SDS011;26196;52.302;10.572;2024-01-15T21:01:04;4.22;;;0.90;;
40489;SDS011;26196;52.302;10.572;2024-01-15T21:05:06;3.00;;;1.05;;
40489;SDS011;26196;52.302;10.572;2024-01-15T21:09:08;2.53;;;0.93;;
40489;SDS011;26196;52.302;10.572;2024-01-15T21:13:09;2.30;;;1.00;;
40489;SDS011;26196;52.302;10.572;2024-01-15T21:21:24;2.75;;;0.88;;
40489;SDS011;26196;52.302;10.572;2024-01-15T21:25:27;1.92;;;1.00;;
40489;SDS011;26196;52.302;10.572;2024-01-15T21:29:29;3.35;;;0.68;;
40489;SDS011;26196;52.302;10.572;2024-01-15T21:33:31;5.03;;;1.95;;
40489;SDS011;26196;52.302;10.572;2024-01-15T21:37:38;1.40;;;0.77;;
40489;SDS011;26196;52.302;10.572;2024-01-15T21:41:42;1.77;;;0.77;;
40489;SDS011;26196;52.302;10.572;2024-01-15T21:50:35;2.58;;;0.60;;
40489;SDS011;26196;52.302;10.572;2024-01-15T21:54:36;1.35;;;0.80;;
40489;SDS011;26196;52.302;10.572;2024-01-15T21:58:51;2.13;;;1.27;;
40489;SDS011;26196;52.302;10.572;2024-01-15T22:02:52;2.50;;;1.65;;
40489;SDS011;26196;52.302;10.572;2024-01-15T22:06:54;6.28;;;1.80;;
40489;SDS011;26196;52.302;10.572;2024-01-15T22:15:20;3.20;;;1.58;;
40489;SDS011;26196;52.302;10.572;2024-01-15T22:19:21;2.33;;;1.40;;
40489;SDS011;26196;52.302;10.572;2024-01-15T22:23:23;2.65;;;1.08;;
40489;SDS011;26196;52.302;10.572;2024-01-15T22:27:24;2.70;;;1.63;;
40489;SDS011;26196;52.302;10.572;2024-01-15T22:31:26;4.10;;;1.50;;
40489;SDS011;26196;52.302;10.572;2024-01-15T22:39:34;1.25;;;0.68;;
40489;SDS011;26196;52.302;10.572;2024-01-15T22:43:36;1.42;;;0.73;;
40489;SDS011;26196;52.302;10.572;2024-01-15T22:51:44;2.05;;;0.68;;
40489;SDS011;26196;52.302;10.572;2024-01-15T23:00:11;6.97;;;3.13;;
40489;SDS011;26196;52.302;10.572;2024-01-15T23:04:19;9.15;;;4.07;;
40489;SDS011;26196;52.302;10.572;2024-01-15T23:08:38;7.55;;;3.38;;
40489;SDS011;26196;52.302;10.572;2024-01-15T23:12:58;6.97;;;3.50;;
40489;SDS011;26196;52.302;10.572;2024-01-15T23:17:00;9.75;;;3.72;;
40489;SDS011;26196;52.302;10.572;2024-01-15T23:21:01;9.98;;;4.63;;
40489;SDS011;26196;52.302;10.572;2024-01-15T23:25:03;14.90;;;6.38;;
40489;SDS011;26196;52.302;10.572;2024-01-15T23:29:05;8.80;;;4.00;;
40489;SDS011;26196;52.302;10.572;2024-01-15T23:37:14;2.03;;;1.42;;
40489;SDS011;26196;52.302;10.572;2024-01-15T23:41:19;2.78;;;1.10;;
40489;SDS011;26196;52.302;10.572;2024-01-15T23:45:22;2.33;;;0.90;;
40489;SDS011;26196;52.302;10.572;2024-01-15T23:49:24;1.73;;;0.90;;
40489;SDS011;26196;52.302;10.572;2024-01-15T23:53:26;3.40;;;0.90;;
40489;SDS011;26196;52.302;10.572;2024-01-15T23:57:35;1.55;;;0.68;;
